sensor_id;sensor_type;location;lat;lon;timestamp;temperature;humidity
71291;DHT22;59073;51.994;4.448;2023-07-30T00:01:37;18.24;81.99
71291;DHT22;59073;51.994;4.448;2023-07-30T00:04:02;18.29;81.99
71291;DHT22;59073;51.994;4.448;2023-07-30T00:06:28;18.26;81.67
71291;DHT22;59073;51.994;4.448;2023-07-30T00:08:53;18.20;82.05
71291;DHT22;59073;51.994;4.448;2023-07-30T00:11:18;18.29;81.93
71291;DHT22;59073;51.994;4.448;2023-07-30T00:13:44;18.24;81.64
71291;DHT22;59073;51.994;4.448;2023-07-30T00:16:10;18.30;81.69
71291;DHT22;59073;51.994;4.448;2023-07-30T00:18:36;18.30;81.44
71291;DHT22;59073;51.994;4.448;2023-07-30T00:21:01;18.27;81.53
71291;DHT22;59073;51.994;4.448;2023-07-30T00:23:26;18.14;81.96
71291;DHT22;59073;51.994;4.448;2023-07-30T00:25:52;18.20;81.98
71291;DHT22;59073;51.994;4.448;2023-07-30T00:28:17;18.10;82.23
71291;DHT22;59073;51.994;4.448;2023-07-30T00:30:43;18.09;82.52
71291;DHT22;59073;51.994;4.448;2023-07-30T00:33:08;18.13;82.61
71291;DHT22;59073;51.994;4.448;2023-07-30T00:35:34;18.23;82.77
71291;DHT22;59073;51.994;4.448;2023-07-30T00:37:59;18.24;82.56
71291;DHT22;59073;51.994;4.448;2023-07-30T00:40:25;18.27;82.96
71291;DHT22;59073;51.994;4.448;2023-07-30T00:42:50;18.33;82.64
71291;DHT22;59073;51.994;4.448;2023-07-30T00:45:15;18.41;82.71
71291;DHT22;59073;51.994;4.448;2023-07-30T00:47:41;18.51;82.32
71291;DHT22;59073;51.994;4.448;2023-07-30T00:50:08;18.51;82.49
71291;DHT22;59073;51.994;4.448;2023-07-30T00:52:36;18.48;82.44
71291;DHT22;59073;51.994;4.448;2023-07-30T00:55:02;18.38;82.92
71291;DHT22;59073;51.994;4.448;2023-07-30T00:57:28;18.45;82.91
71291;DHT22;59073;51.994;4.448;2023-07-30T00:59:55;18.50;83.11
71291;DHT22;59073;51.994;4.448;2023-07-30T01:02:21;18.54;82.85
71291;DHT22;59073;51.994;4.448;2023-07-30T01:04:49;18.58;82.76
71291;DHT22;59073;51.994;4.448;2023-07-30T01:07:15;18.54;82.96
71291;DHT22;59073;51.994;4.448;2023-07-30T01:09:41;18.55;83.11
71291;DHT22;59073;51.994;4.448;2023-07-30T01:12:07;18.58;82.72
71291;DHT22;59073;51.994;4.448;2023-07-30T01:14:33;18.72;82.57
71291;DHT22;59073;51.994;4.448;2023-07-30T01:17:00;18.75;82.59
71291;DHT22;59073;51.994;4.448;2023-07-30T01:19:25;18.71;82.70
71291;DHT22;59073;51.994;4.448;2023-07-30T01:21:51;18.76;82.49
71291;DHT22;59073;51.994;4.448;2023-07-30T01:24:16;18.84;82.49
71291;DHT22;59073;51.994;4.448;2023-07-30T01:26:53;18.89;82.05
71291;DHT22;59073;51.994;4.448;2023-07-30T01:29:28;18.65;82.67
71291;DHT22;59073;51.994;4.448;2023-07-30T01:31:57;18.62;82.92
71291;DHT22;59073;51.994;4.448;2023-07-30T01:34:27;18.67;82.73
71291;DHT22;59073;51.994;4.448;2023-07-30T01:36:54;18.61;82.75
71291;DHT22;59073;51.994;4.448;2023-07-30T01:39:22;18.60;82.86
71291;DHT22;59073;51.994;4.448;2023-07-30T01:41:47;18.69;82.52
71291;DHT22;59073;51.994;4.448;2023-07-30T01:44:13;18.65;82.69
71291;DHT22;59073;51.994;4.448;2023-07-30T01:46:38;18.75;82.27
71291;DHT22;59073;51.994;4.448;2023-07-30T01:49:04;18.78;82.27
71291;DHT22;59073;51.994;4.448;2023-07-30T01:51:29;18.72;82.20
71291;DHT22;59073;51.994;4.448;2023-07-30T01:53:54;18.75;82.10
71291;DHT22;59073;51.994;4.448;2023-07-30T01:56:20;18.68;82.54
71291;DHT22;59073;51.994;4.448;2023-07-30T01:58:45;18.69;82.67
71291;DHT22;59073;51.994;4.448;2023-07-30T02:01:12;18.74;82.59
71291;DHT22;59073;51.994;4.448;2023-07-30T02:03:37;18.76;82.49
71291;DHT22;59073;51.994;4.448;2023-07-30T02:06:02;18.82;82.19
71291;DHT22;59073;51.994;4.448;2023-07-30T02:08:28;18.85;82.24
71291;DHT22;59073;51.994;4.448;2023-07-30T02:10:57;18.99;81.94
71291;DHT22;59073;51.994;4.448;2023-07-30T02:13:23;18.95;82.21
71291;DHT22;59073;51.994;4.448;2023-07-30T02:15:48;18.98;82.22
71291;DHT22;59073;51.994;4.448;2023-07-30T02:18:14;18.91;82.50
71291;DHT22;59073;51.994;4.448;2023-07-30T02:20:39;19.02;81.98
71291;DHT22;59073;51.994;4.448;2023-07-30T02:23:04;18.99;82.30
71291;DHT22;59073;51.994;4.448;2023-07-30T02:25:30;19.08;81.76
71291;DHT22;59073;51.994;4.448;2023-07-30T02:27:56;19.03;81.76
71291;DHT22;59073;51.994;4.448;2023-07-30T02:30:22;19.05;81.93
71291;DHT22;59073;51.994;4.448;2023-07-30T02:32:47;19.09;81.80
71291;DHT22;59073;51.994;4.448;2023-07-30T02:35:12;19.09;81.84
71291;DHT22;59073;51.994;4.448;2023-07-30T02:37:38;19.16;81.79
71291;DHT22;59073;51.994;4.448;2023-07-30T02:40:03;19.22;81.54
71291;DHT22;59073;51.994;4.448;2023-07-30T02:42:30;19.24;81.35
71291;DHT22;59073;51.994;4.448;2023-07-30T02:44:56;19.19;81.53
71291;DHT22;59073;51.994;4.448;2023-07-30T02:47:21;19.09;81.84
71291;DHT22;59073;51.994;4.448;2023-07-30T02:49:47;19.06;81.80
71291;DHT22;59073;51.994;4.448;2023-07-30T02:52:12;19.13;81.60
71291;DHT22;59073;51.994;4.448;2023-07-30T02:54:38;19.05;81.67
71291;DHT22;59073;51.994;4.448;2023-07-30T02:57:03;19.13;81.69
71291;DHT22;59073;51.994;4.448;2023-07-30T02:59:29;19.09;81.81
71291;DHT22;59073;51.994;4.448;2023-07-30T03:01:54;19.08;81.80
71291;DHT22;59073;51.994;4.448;2023-07-30T03:04:19;19.05;81.90
71291;DHT22;59073;51.994;4.448;2023-07-30T03:06:45;19.01;82.11
71291;DHT22;59073;51.994;4.448;2023-07-30T03:09:10;19.06;81.93
71291;DHT22;59073;51.994;4.448;2023-07-30T03:11:36;19.05;81.86
71291;DHT22;59073;51.994;4.448;2023-07-30T03:14:01;19.13;81.70
71291;DHT22;59073;51.994;4.448;2023-07-30T03:16:26;19.20;81.59
71291;DHT22;59073;51.994;4.448;2023-07-30T03:18:52;19.27;80.99
71291;DHT22;59073;51.994;4.448;2023-07-30T03:21:17;19.33;80.96
71291;DHT22;59073;51.994;4.448;2023-07-30T03:23:43;19.40;80.61
71291;DHT22;59073;51.994;4.448;2023-07-30T03:26:10;19.36;80.50
71291;DHT22;59073;51.994;4.448;2023-07-30T03:28:35;19.19;80.71
71291;DHT22;59073;51.994;4.448;2023-07-30T03:31:01;19.11;80.97
71291;DHT22;59073;51.994;4.448;2023-07-30T03:33:26;19.08;80.25
71291;DHT22;59073;51.994;4.448;2023-07-30T03:35:52;19.02;80.20
71291;DHT22;59073;51.994;4.448;2023-07-30T03:38:17;18.98;79.69
71291;DHT22;59073;51.994;4.448;2023-07-30T03:40:42;18.92;79.95
71291;DHT22;59073;51.994;4.448;2023-07-30T03:43:08;18.81;79.81
71291;DHT22;59073;51.994;4.448;2023-07-30T03:45:33;18.72;79.12
71291;DHT22;59073;51.994;4.448;2023-07-30T03:47:59;18.72;78.73
71291;DHT22;59073;51.994;4.448;2023-07-30T03:50:24;18.74;78.39
71291;DHT22;59073;51.994;4.448;2023-07-30T03:52:50;18.69;77.72
71291;DHT22;59073;51.994;4.448;2023-07-30T03:55:15;18.62;77.31
71291;DHT22;59073;51.994;4.448;2023-07-30T03:57:40;18.52;75.75
71291;DHT22;59073;51.994;4.448;2023-07-30T04:00:06;18.47;75.79
71291;DHT22;59073;51.994;4.448;2023-07-30T04:02:32;18.45;75.24
71291;DHT22;59073;51.994;4.448;2023-07-30T04:04:57;18.50;74.79
71291;DHT22;59073;51.994;4.448;2023-07-30T04:07:23;18.55;74.92
71291;DHT22;59073;51.994;4.448;2023-07-30T04:09:48;18.47;74.35
71291;DHT22;59073;51.994;4.448;2023-07-30T04:12:14;18.38;74.51
71291;DHT22;59073;51.994;4.448;2023-07-30T04:14:39;18.41;73.81
71291;DHT22;59073;51.994;4.448;2023-07-30T04:17:05;18.43;73.82
71291;DHT22;59073;51.994;4.448;2023-07-30T04:19:30;18.51;72.87
71291;DHT22;59073;51.994;4.448;2023-07-30T04:21:56;18.62;72.79
71291;DHT22;59073;51.994;4.448;2023-07-30T04:24:21;18.60;71.94
71291;DHT22;59073;51.994;4.448;2023-07-30T04:26:47;18.54;72.51
71291;DHT22;59073;51.994;4.448;2023-07-30T04:29:12;18.67;73.11
71291;DHT22;59073;51.994;4.448;2023-07-30T04:31:39;18.74;72.98
71291;DHT22;59073;51.994;4.448;2023-07-30T04:34:04;18.74;73.48
71291;DHT22;59073;51.994;4.448;2023-07-30T04:36:30;18.69;73.62
71291;DHT22;59073;51.994;4.448;2023-07-30T04:38:55;18.57;72.77
71291;DHT22;59073;51.994;4.448;2023-07-30T04:41:21;18.57;72.79
71291;DHT22;59073;51.994;4.448;2023-07-30T04:43:47;18.60;73.01
71291;DHT22;59073;51.994;4.448;2023-07-30T04:46:12;18.48;72.61
71291;DHT22;59073;51.994;4.448;2023-07-30T04:48:38;18.44;72.39
71291;DHT22;59073;51.994;4.448;2023-07-30T04:51:03;18.38;72.71
71291;DHT22;59073;51.994;4.448;2023-07-30T04:53:29;18.48;72.93
71291;DHT22;59073;51.994;4.448;2023-07-30T04:55:55;18.52;73.04
71291;DHT22;59073;51.994;4.448;2023-07-30T04:58:22;18.48;72.70
71291;DHT22;59073;51.994;4.448;2023-07-30T05:00:47;18.40;73.04
71291;DHT22;59073;51.994;4.448;2023-07-30T05:03:14;18.45;73.33
71291;DHT22;59073;51.994;4.448;2023-07-30T05:05:39;18.44;73.72
71291;DHT22;59073;51.994;4.448;2023-07-30T05:08:05;18.50;74.11
71291;DHT22;59073;51.994;4.448;2023-07-30T05:10:30;18.58;74.14
71291;DHT22;59073;51.994;4.448;2023-07-30T05:12:55;18.71;74.36
71291;DHT22;59073;51.994;4.448;2023-07-30T05:15:21;18.81;74.48
71291;DHT22;59073;51.994;4.448;2023-07-30T05:17:46;18.82;75.98
71291;DHT22;59073;51.994;4.448;2023-07-30T05:20:12;18.88;77.11
71291;DHT22;59073;51.994;4.448;2023-07-30T05:22:37;18.95;77.80
71291;DHT22;59073;51.994;4.448;2023-07-30T05:25:03;19.03;78.24
71291;DHT22;59073;51.994;4.448;2023-07-30T05:27:28;19.11;78.47
71291;DHT22;59073;51.994;4.448;2023-07-30T05:29:54;19.01;78.58
71291;DHT22;59073;51.994;4.448;2023-07-30T05:32:20;19.01;78.81
71291;DHT22;59073;51.994;4.448;2023-07-30T05:34:45;19.02;78.89
71291;DHT22;59073;51.994;4.448;2023-07-30T05:37:11;18.98;78.88
71291;DHT22;59073;51.994;4.448;2023-07-30T05:39:36;18.84;79.08
71291;DHT22;59073;51.994;4.448;2023-07-30T05:42:02;18.87;78.83
71291;DHT22;59073;51.994;4.448;2023-07-30T05:44:27;18.99;78.76
71291;DHT22;59073;51.994;4.448;2023-07-30T05:46:53;19.15;78.36
71291;DHT22;59073;51.994;4.448;2023-07-30T05:49:19;19.22;78.35
71291;DHT22;59073;51.994;4.448;2023-07-30T05:51:44;19.23;78.42
71291;DHT22;59073;51.994;4.448;2023-07-30T05:54:10;19.24;78.67
71291;DHT22;59073;51.994;4.448;2023-07-30T05:56:35;19.29;78.32
71291;DHT22;59073;51.994;4.448;2023-07-30T05:59:00;19.24;78.06
71291;DHT22;59073;51.994;4.448;2023-07-30T06:01:26;19.32;77.92
71291;DHT22;59073;51.994;4.448;2023-07-30T06:03:51;19.24;77.42
71291;DHT22;59073;51.994;4.448;2023-07-30T06:06:17;19.13;77.66
71291;DHT22;59073;51.994;4.448;2023-07-30T06:08:42;19.05;78.10
71291;DHT22;59073;51.994;4.448;2023-07-30T06:11:08;19.05;78.11
71291;DHT22;59073;51.994;4.448;2023-07-30T06:13:33;19.08;77.79
71291;DHT22;59073;51.994;4.448;2023-07-30T06:15:59;18.98;77.51
71291;DHT22;59073;51.994;4.448;2023-07-30T06:18:24;18.99;77.68
71291;DHT22;59073;51.994;4.448;2023-07-30T06:20:50;18.99;77.85
71291;DHT22;59073;51.994;4.448;2023-07-30T06:23:15;19.01;78.07
71291;DHT22;59073;51.994;4.448;2023-07-30T06:25:40;18.94;78.03
71291;DHT22;59073;51.994;4.448;2023-07-30T06:28:06;19.03;78.15
71291;DHT22;59073;51.994;4.448;2023-07-30T06:30:32;19.11;78.13
71291;DHT22;59073;51.994;4.448;2023-07-30T06:32:58;19.23;77.38
71291;DHT22;59073;51.994;4.448;2023-07-30T06:35:23;19.37;77.39
71291;DHT22;59073;51.994;4.448;2023-07-30T06:37:50;19.50;77.01
71291;DHT22;59073;51.994;4.448;2023-07-30T06:40:15;19.60;76.87
71291;DHT22;59073;51.994;4.448;2023-07-30T06:42:41;19.77;76.50
71291;DHT22;59073;51.994;4.448;2023-07-30T06:45:07;19.78;76.05
71291;DHT22;59073;51.994;4.448;2023-07-30T06:47:32;19.92;75.37
71291;DHT22;59073;51.994;4.448;2023-07-30T06:49:58;20.10;75.44
71291;DHT22;59073;51.994;4.448;2023-07-30T06:52:23;20.02;75.71
71291;DHT22;59073;51.994;4.448;2023-07-30T06:54:49;19.73;75.71
71291;DHT22;59073;51.994;4.448;2023-07-30T06:57:14;19.32;77.13
71291;DHT22;59073;51.994;4.448;2023-07-30T06:59:39;19.27;77.88
71291;DHT22;59073;51.994;4.448;2023-07-30T07:02:05;19.16;77.77
71291;DHT22;59073;51.994;4.448;2023-07-30T07:04:31;19.16;77.94
71291;DHT22;59073;51.994;4.448;2023-07-30T07:06:56;18.92;79.11
71291;DHT22;59073;51.994;4.448;2023-07-30T07:09:21;18.85;79.80
71291;DHT22;59073;51.994;4.448;2023-07-30T07:11:47;18.94;79.72
71291;DHT22;59073;51.994;4.448;2023-07-30T07:14:13;19.22;79.28
71291;DHT22;59073;51.994;4.448;2023-07-30T07:16:38;19.57;78.37
71291;DHT22;59073;51.994;4.448;2023-07-30T07:19:03;19.59;77.49
71291;DHT22;59073;51.994;4.448;2023-07-30T07:21:29;19.50;76.83
71291;DHT22;59073;51.994;4.448;2023-07-30T07:23:54;19.43;77.84
71291;DHT22;59073;51.994;4.448;2023-07-30T07:26:20;19.34;78.55
71291;DHT22;59073;51.994;4.448;2023-07-30T07:28:46;19.33;78.14
71291;DHT22;59073;51.994;4.448;2023-07-30T07:31:11;19.24;77.52
71291;DHT22;59073;51.994;4.448;2023-07-30T07:33:37;19.33;76.40
71291;DHT22;59073;51.994;4.448;2023-07-30T07:36:07;19.37;74.00
71291;DHT22;59073;51.994;4.448;2023-07-30T07:38:33;19.56;73.28
71291;DHT22;59073;51.994;4.448;2023-07-30T07:41:00;19.90;72.32
71291;DHT22;59073;51.994;4.448;2023-07-30T07:43:25;20.42;70.99
71291;DHT22;59073;51.994;4.448;2023-07-30T07:45:51;20.71;69.19
71291;DHT22;59073;51.994;4.448;2023-07-30T07:48:17;20.83;69.94
71291;DHT22;59073;51.994;4.448;2023-07-30T07:50:42;20.83;69.16
71291;DHT22;59073;51.994;4.448;2023-07-30T07:53:07;21.02;68.85
71291;DHT22;59073;51.994;4.448;2023-07-30T07:55:33;21.03;67.81
71291;DHT22;59073;51.994;4.448;2023-07-30T07:57:58;21.07;69.11
71291;DHT22;59073;51.994;4.448;2023-07-30T08:00:24;20.97;67.26
71291;DHT22;59073;51.994;4.448;2023-07-30T08:02:49;20.97;67.30
71291;DHT22;59073;51.994;4.448;2023-07-30T08:05:15;21.00;67.26
71291;DHT22;59073;51.994;4.448;2023-07-30T08:07:40;20.84;66.79
71291;DHT22;59073;51.994;4.448;2023-07-30T08:10:06;20.62;67.30
71291;DHT22;59073;51.994;4.448;2023-07-30T08:12:32;20.48;67.93
71291;DHT22;59073;51.994;4.448;2023-07-30T08:14:58;20.31;68.71
71291;DHT22;59073;51.994;4.448;2023-07-30T08:17:24;20.33;69.42
71291;DHT22;59073;51.994;4.448;2023-07-30T08:19:50;20.22;68.97
71291;DHT22;59073;51.994;4.448;2023-07-30T08:22:15;20.12;69.40
71291;DHT22;59073;51.994;4.448;2023-07-30T08:24:40;20.01;70.44
71291;DHT22;59073;51.994;4.448;2023-07-30T08:27:06;19.64;72.38
71291;DHT22;59073;51.994;4.448;2023-07-30T08:29:31;19.70;72.03
71291;DHT22;59073;51.994;4.448;2023-07-30T08:31:57;19.81;72.33
71291;DHT22;59073;51.994;4.448;2023-07-30T08:34:22;19.84;72.01
71291;DHT22;59073;51.994;4.448;2023-07-30T08:36:48;19.49;73.64
71291;DHT22;59073;51.994;4.448;2023-07-30T08:39:14;19.69;74.17
71291;DHT22;59073;51.994;4.448;2023-07-30T08:41:40;20.12;73.05
71291;DHT22;59073;51.994;4.448;2023-07-30T08:44:06;20.28;71.35
71291;DHT22;59073;51.994;4.448;2023-07-30T08:46:31;19.97;71.11
71291;DHT22;59073;51.994;4.448;2023-07-30T08:48:57;19.88;71.44
71291;DHT22;59073;51.994;4.448;2023-07-30T08:51:23;19.92;71.18
71291;DHT22;59073;51.994;4.448;2023-07-30T08:53:51;20.07;71.57
71291;DHT22;59073;51.994;4.448;2023-07-30T08:56:16;20.84;69.81
71291;DHT22;59073;51.994;4.448;2023-07-30T08:58:44;21.74;68.19
71291;DHT22;59073;51.994;4.448;2023-07-30T09:01:11;22.50;66.98
71291;DHT22;59073;51.994;4.448;2023-07-30T09:03:39;23.08;62.90
71291;DHT22;59073;51.994;4.448;2023-07-30T09:06:05;22.94;62.01
71291;DHT22;59073;51.994;4.448;2023-07-30T09:08:30;22.61;62.09
71291;DHT22;59073;51.994;4.448;2023-07-30T09:11:06;22.68;63.81
71291;DHT22;59073;51.994;4.448;2023-07-30T09:13:39;22.35;62.51
71291;DHT22;59073;51.994;4.448;2023-07-30T09:16:12;21.74;64.64
71291;DHT22;59073;51.994;4.448;2023-07-30T09:18:46;21.72;64.43
71291;DHT22;59073;51.994;4.448;2023-07-30T09:21:12;21.50;64.37
71291;DHT22;59073;51.994;4.448;2023-07-30T09:23:48;22.02;64.50
71291;DHT22;59073;51.994;4.448;2023-07-30T09:26:14;22.57;63.52
71291;DHT22;59073;51.994;4.448;2023-07-30T09:28:39;23.49;62.58
71291;DHT22;59073;51.994;4.448;2023-07-30T09:31:07;23.97;58.62
71291;DHT22;59073;51.994;4.448;2023-07-30T09:33:40;23.43;58.60
71291;DHT22;59073;51.994;4.448;2023-07-30T09:36:07;22.44;60.94
71291;DHT22;59073;51.994;4.448;2023-07-30T09:38:41;22.35;63.59
71291;DHT22;59073;51.994;4.448;2023-07-30T09:41:07;22.83;62.28
71291;DHT22;59073;51.994;4.448;2023-07-30T09:43:34;22.88;61.56
71291;DHT22;59073;51.994;4.448;2023-07-30T09:46:05;22.61;62.25
71291;DHT22;59073;51.994;4.448;2023-07-30T09:48:33;22.94;60.75
71291;DHT22;59073;51.994;4.448;2023-07-30T09:51:00;22.98;60.97
71291;DHT22;59073;51.994;4.448;2023-07-30T09:53:30;22.95;59.40
71291;DHT22;59073;51.994;4.448;2023-07-30T09:55:55;23.21;60.37
71291;DHT22;59073;51.994;4.448;2023-07-30T09:58:21;23.49;60.51
71291;DHT22;59073;51.994;4.448;2023-07-30T10:00:48;23.93;58.46
71291;DHT22;59073;51.994;4.448;2023-07-30T10:03:15;23.76;57.29
71291;DHT22;59073;51.994;4.448;2023-07-30T10:05:44;23.51;58.97
71291;DHT22;59073;51.994;4.448;2023-07-30T10:08:17;22.94;58.57
71291;DHT22;59073;51.994;4.448;2023-07-30T10:10:44;23.14;60.37
71291;DHT22;59073;51.994;4.448;2023-07-30T10:13:12;23.21;61.25
71291;DHT22;59073;51.994;4.448;2023-07-30T10:15:38;23.25;60.06
71291;DHT22;59073;51.994;4.448;2023-07-30T10:18:03;22.88;60.18
71291;DHT22;59073;51.994;4.448;2023-07-30T10:20:30;22.44;61.08
71291;DHT22;59073;51.994;4.448;2023-07-30T10:23:01;22.14;62.29
71291;DHT22;59073;51.994;4.448;2023-07-30T10:25:42;21.82;63.56
71291;DHT22;59073;51.994;4.448;2023-07-30T10:28:34;22.19;63.28
71291;DHT22;59073;51.994;4.448;2023-07-30T10:31:04;22.03;63.07
71291;DHT22;59073;51.994;4.448;2023-07-30T10:33:49;21.74;64.44
71291;DHT22;59073;51.994;4.448;2023-07-30T10:36:30;21.64;64.28
71291;DHT22;59073;51.994;4.448;2023-07-30T10:38:56;21.95;63.04
71291;DHT22;59073;51.994;4.448;2023-07-30T10:41:22;22.42;62.40
71291;DHT22;59073;51.994;4.448;2023-07-30T10:43:49;22.94;60.92
71291;DHT22;59073;51.994;4.448;2023-07-30T10:46:19;23.39;60.26
71291;DHT22;59073;51.994;4.448;2023-07-30T10:48:47;23.66;59.42
71291;DHT22;59073;51.994;4.448;2023-07-30T10:51:14;23.63;60.26
71291;DHT22;59073;51.994;4.448;2023-07-30T10:53:44;23.56;60.12
71291;DHT22;59073;51.994;4.448;2023-07-30T10:56:12;23.55;59.56
71291;DHT22;59073;51.994;4.448;2023-07-30T10:58:38;23.31;61.17
71291;DHT22;59073;51.994;4.448;2023-07-30T11:01:05;23.15;61.08
71291;DHT22;59073;51.994;4.448;2023-07-30T11:03:32;23.04;60.56
71291;DHT22;59073;51.994;4.448;2023-07-30T11:05:58;22.90;60.34
71291;DHT22;59073;51.994;4.448;2023-07-30T11:08:37;22.83;61.02
71291;DHT22;59073;51.994;4.448;2023-07-30T11:11:04;22.75;61.21
71291;DHT22;59073;51.994;4.448;2023-07-30T11:13:36;22.87;61.56
71291;DHT22;59073;51.994;4.448;2023-07-30T11:16:02;22.98;62.02
71291;DHT22;59073;51.994;4.448;2023-07-30T11:18:31;23.25;61.14
71291;DHT22;59073;51.994;4.448;2023-07-30T11:21:05;23.39;61.17
71291;DHT22;59073;51.994;4.448;2023-07-30T11:23:32;23.53;61.78
71291;DHT22;59073;51.994;4.448;2023-07-30T11:25:59;23.51;61.55
71291;DHT22;59073;51.994;4.448;2023-07-30T11:30:58;22.81;60.76
71291;DHT22;59073;51.994;4.448;2023-07-30T11:33:25;23.05;62.48
71291;DHT22;59073;51.994;4.448;2023-07-30T11:35:51;23.21;61.83
71291;DHT22;59073;51.994;4.448;2023-07-30T11:38:17;23.16;61.23
71291;DHT22;59073;51.994;4.448;2023-07-30T11:40:46;23.00;61.47
71291;DHT22;59073;51.994;4.448;2023-07-30T11:43:13;22.78;61.95
71291;DHT22;59073;51.994;4.448;2023-07-30T11:45:39;22.59;61.97
71291;DHT22;59073;51.994;4.448;2023-07-30T11:48:09;22.92;62.51
71291;DHT22;59073;51.994;4.448;2023-07-30T11:50:44;22.98;62.01
71291;DHT22;59073;51.994;4.448;2023-07-30T11:53:10;23.08;62.23
71291;DHT22;59073;51.994;4.448;2023-07-30T11:55:39;23.29;62.26
71291;DHT22;59073;51.994;4.448;2023-07-30T11:58:06;23.31;61.36
71291;DHT22;59073;51.994;4.448;2023-07-30T12:00:32;23.04;62.48
71291;DHT22;59073;51.994;4.448;2023-07-30T12:03:06;23.25;61.30
71291;DHT22;59073;51.994;4.448;2023-07-30T12:05:36;23.26;60.94
71291;DHT22;59073;51.994;4.448;2023-07-30T12:08:04;23.32;60.84
71291;DHT22;59073;51.994;4.448;2023-07-30T12:10:46;23.14;60.62
71291;DHT22;59073;51.994;4.448;2023-07-30T12:13:17;23.04;59.98
71291;DHT22;59073;51.994;4.448;2023-07-30T12:15:53;23.18;60.89
71291;DHT22;59073;51.994;4.448;2023-07-30T12:18:20;22.94;58.27
71291;DHT22;59073;51.994;4.448;2023-07-30T12:20:47;22.67;59.63
71291;DHT22;59073;51.994;4.448;2023-07-30T12:23:13;22.74;61.31
71291;DHT22;59073;51.994;4.448;2023-07-30T12:25:38;22.78;60.92
71291;DHT22;59073;51.994;4.448;2023-07-30T12:28:04;22.95;60.98
71291;DHT22;59073;51.994;4.448;2023-07-30T12:30:29;23.05;59.63
71291;DHT22;59073;51.994;4.448;2023-07-30T12:32:55;23.42;57.43
71291;DHT22;59073;51.994;4.448;2023-07-30T12:35:21;23.67;57.59
71291;DHT22;59073;51.994;4.448;2023-07-30T12:37:47;23.70;57.14
71291;DHT22;59073;51.994;4.448;2023-07-30T12:40:12;23.42;57.42
71291;DHT22;59073;51.994;4.448;2023-07-30T12:42:38;23.11;58.20
71291;DHT22;59073;51.994;4.448;2023-07-30T12:45:03;22.91;59.56
71291;DHT22;59073;51.994;4.448;2023-07-30T12:47:29;22.68;60.62
71291;DHT22;59073;51.994;4.448;2023-07-30T12:49:54;22.49;60.78
71291;DHT22;59073;51.994;4.448;2023-07-30T12:52:20;22.40;61.25
71291;DHT22;59073;51.994;4.448;2023-07-30T12:54:45;22.47;60.33
71291;DHT22;59073;51.994;4.448;2023-07-30T12:57:11;22.28;60.29
71291;DHT22;59073;51.994;4.448;2023-07-30T12:59:36;22.26;61.95
71291;DHT22;59073;51.994;4.448;2023-07-30T13:02:02;22.84;62.93
71291;DHT22;59073;51.994;4.448;2023-07-30T13:04:27;23.15;59.00
71291;DHT22;59073;51.994;4.448;2023-07-30T13:06:56;23.05;60.02
71291;DHT22;59073;51.994;4.448;2023-07-30T13:09:21;22.75;59.90
71291;DHT22;59073;51.994;4.448;2023-07-30T13:11:47;22.74;60.50
71291;DHT22;59073;51.994;4.448;2023-07-30T13:14:13;23.12;60.23
71291;DHT22;59073;51.994;4.448;2023-07-30T13:16:38;22.91;59.38
71291;DHT22;59073;51.994;4.448;2023-07-30T13:19:03;22.60;60.28
71291;DHT22;59073;51.994;4.448;2023-07-30T13:21:29;22.35;60.98
71291;DHT22;59073;51.994;4.448;2023-07-30T13:23:54;22.67;60.70
71291;DHT22;59073;51.994;4.448;2023-07-30T13:26:20;22.83;60.52
71291;DHT22;59073;51.994;4.448;2023-07-30T13:28:45;22.75;61.40
71291;DHT22;59073;51.994;4.448;2023-07-30T13:31:11;23.01;61.42
71291;DHT22;59073;51.994;4.448;2023-07-30T13:33:36;23.21;61.18
71291;DHT22;59073;51.994;4.448;2023-07-30T13:36:02;23.08;60.44
71291;DHT22;59073;51.994;4.448;2023-07-30T13:38:28;22.90;62.13
71291;DHT22;59073;51.994;4.448;2023-07-30T13:40:54;22.50;61.41
71291;DHT22;59073;51.994;4.448;2023-07-30T13:43:19;22.24;62.56
71291;DHT22;59073;51.994;4.448;2023-07-30T13:45:45;21.98;63.45
71291;DHT22;59073;51.994;4.448;2023-07-30T13:48:11;21.86;62.74
71291;DHT22;59073;51.994;4.448;2023-07-30T13:50:36;22.20;64.87
71291;DHT22;59073;51.994;4.448;2023-07-30T13:53:02;22.57;63.22
71291;DHT22;59073;51.994;4.448;2023-07-30T13:55:28;22.86;62.13
71291;DHT22;59073;51.994;4.448;2023-07-30T13:57:53;22.92;61.74
71291;DHT22;59073;51.994;4.448;2023-07-30T14:00:19;22.98;61.24
71291;DHT22;59073;51.994;4.448;2023-07-30T14:02:44;22.78;60.80
71291;DHT22;59073;51.994;4.448;2023-07-30T14:05:10;22.90;61.68
71291;DHT22;59073;51.994;4.448;2023-07-30T14:07:36;23.04;59.92
71291;DHT22;59073;51.994;4.448;2023-07-30T14:10:02;22.70;60.06
71291;DHT22;59073;51.994;4.448;2023-07-30T14:12:27;22.20;61.16
71291;DHT22;59073;51.994;4.448;2023-07-30T14:14:52;21.81;63.76
71291;DHT22;59073;51.994;4.448;2023-07-30T14:17:18;21.65;64.67
71291;DHT22;59073;51.994;4.448;2023-07-30T14:19:43;21.55;64.58
71291;DHT22;59073;51.994;4.448;2023-07-30T14:22:09;21.41;65.72
71291;DHT22;59073;51.994;4.448;2023-07-30T14:24:34;21.51;66.22
71291;DHT22;59073;51.994;4.448;2023-07-30T14:27:01;21.68;66.30
71291;DHT22;59073;51.994;4.448;2023-07-30T14:29:26;21.66;65.62
71291;DHT22;59073;51.994;4.448;2023-07-30T14:31:52;21.86;66.18
71291;DHT22;59073;51.994;4.448;2023-07-30T14:34:17;21.74;64.14
71291;DHT22;59073;51.994;4.448;2023-07-30T14:36:43;21.75;65.44
71291;DHT22;59073;51.994;4.448;2023-07-30T14:39:08;21.81;66.89
71291;DHT22;59073;51.994;4.448;2023-07-30T14:41:33;21.85;66.91
71291;DHT22;59073;51.994;4.448;2023-07-30T14:43:59;21.74;65.90
71291;DHT22;59073;51.994;4.448;2023-07-30T14:46:25;21.62;66.87
71291;DHT22;59073;51.994;4.448;2023-07-30T14:48:50;21.68;66.93
71291;DHT22;59073;51.994;4.448;2023-07-30T14:51:16;21.59;66.83
71291;DHT22;59073;51.994;4.448;2023-07-30T14:53:41;21.79;67.31
71291;DHT22;59073;51.994;4.448;2023-07-30T14:56:07;21.68;66.58
71291;DHT22;59073;51.994;4.448;2023-07-30T14:58:32;21.75;67.65
71291;DHT22;59073;51.994;4.448;2023-07-30T15:00:57;21.78;67.22
71291;DHT22;59073;51.994;4.448;2023-07-30T15:03:23;21.59;66.70
71291;DHT22;59073;51.994;4.448;2023-07-30T15:05:48;21.44;67.66
71291;DHT22;59073;51.994;4.448;2023-07-30T15:08:14;21.44;67.02
71291;DHT22;59073;51.994;4.448;2023-07-30T15:10:39;21.41;67.36
71291;DHT22;59073;51.994;4.448;2023-07-30T15:13:05;21.51;67.16
71291;DHT22;59073;51.994;4.448;2023-07-30T15:15:30;21.51;67.01
71291;DHT22;59073;51.994;4.448;2023-07-30T15:17:55;21.40;67.82
71291;DHT22;59073;51.994;4.448;2023-07-30T15:20:21;21.54;67.93
71291;DHT22;59073;51.994;4.448;2023-07-30T15:22:46;21.58;68.23
71291;DHT22;59073;51.994;4.448;2023-07-30T15:25:12;21.62;68.37
71291;DHT22;59073;51.994;4.448;2023-07-30T15:27:37;21.58;67.54